createdAt,value
2016-11-20T00:00:53.423Z,0
2016-11-20T00:01:53.104Z,0
2016-11-20T00:02:53.436Z,0
2016-11-20T00:03:52.846Z,0
2016-11-20T00:04:53.178Z,0
2016-11-20T00:05:53.182Z,0
2016-11-20T00:06:53.173Z,0
2016-11-20T00:07:53.203Z,0
2016-11-20T00:08:52.905Z,0
2016-11-20T00:09:52.948Z,0
2016-11-20T00:10:52.944Z,0
2016-11-20T00:11:52.967Z,0
2016-11-20T00:12:53.308Z,0
2016-11-20T00:13:53.281Z,0
2016-11-20T00:14:53.333Z,0
2016-11-20T00:15:53.308Z,0
2016-11-20T00:16:53.007Z,0
2016-11-20T00:17:52.713Z,0
2016-11-20T00:18:53.666Z,0
2016-11-20T00:19:53.689Z,0
2016-11-20T00:20:53.391Z,0
2016-11-20T00:21:53.083Z,0
2016-11-20T00:22:53.096Z,0
2016-11-20T00:23:53.473Z,0
2016-11-20T00:24:53.445Z,0
2016-11-20T00:25:53.144Z,0
2016-11-20T00:26:53.165Z,0
2016-11-20T00:27:53.803Z,0
2016-11-20T00:28:52.873Z,0
2016-11-20T00:29:53.203Z,0
2016-11-20T00:30:53.535Z,0
2016-11-20T00:31:53.954Z,0
2016-11-20T00:32:53.253Z,0
2016-11-20T00:33:53.591Z,0
2016-11-20T00:34:53.932Z,0
2016-11-20T00:35:53.641Z,0
2016-11-20T00:36:53.630Z,0
2016-11-20T00:37:53.651Z,0
2016-11-20T00:38:53.650Z,0
2016-11-20T00:39:53.036Z,0
2016-11-20T00:40:53.051Z,0
2016-11-20T00:41:53.378Z,0
2016-11-20T00:42:53.398Z,0
2016-11-20T00:43:53.095Z,0
2016-11-20T00:44:53.435Z,0
2016-11-20T00:45:54.076Z,0
2016-11-20T00:46:53.478Z,0
2016-11-20T00:47:53.820Z,0
2016-11-20T00:48:53.510Z,0
2016-11-20T00:49:53.807Z,0
2016-11-20T00:50:53.217Z,0
2016-11-20T00:51:53.212Z,0
2016-11-20T00:52:53.542Z,0
2016-11-20T00:53:53.561Z,0
2016-11-20T00:54:54.204Z,0
2016-11-20T00:55:54.233Z,0
2016-11-20T00:56:53.601Z,0
2016-11-20T00:57:53.932Z,0
2016-11-20T00:58:53.951Z,0
2016-11-20T00:59:53.659Z,0
2016-11-20T01:00:53.666Z,0
2016-11-20T01:01:53.698Z,0
2016-11-20T01:02:54.366Z,0
2016-11-20T01:03:53.706Z,0
2016-11-20T01:04:54.358Z,0
2016-11-20T01:05:54.402Z,0
2016-11-20T01:06:54.386Z,0
2016-11-20T01:07:54.085Z,0
2016-11-20T01:08:53.475Z,0
2016-11-20T01:09:54.116Z,0
2016-11-20T01:10:54.128Z,0
2016-11-20T01:11:54.144Z,0
2016-11-20T01:12:54.163Z,0
2016-11-20T01:13:54.179Z,0
2016-11-20T01:14:54.183Z,0
2016-11-20T01:15:54.509Z,0
2016-11-20T01:16:54.530Z,0
2016-11-20T01:17:53.916Z,0
2016-11-20T01:18:54.241Z,0
2016-11-20T01:19:53.948Z,0
2016-11-20T01:20:54.593Z,0
2016-11-20T01:21:54.948Z,0
2016-11-20T01:22:54.296Z,0
2016-11-20T01:23:54.002Z,0
2016-11-20T01:24:54.348Z,0
2016-11-20T01:25:54.028Z,0
2016-11-20T01:26:54.678Z,0
2016-11-20T01:27:54.376Z,0
2016-11-20T01:28:55.089Z,0
2016-11-20T01:29:55.511Z,0
2016-11-20T01:30:55.111Z,0
2016-11-20T01:31:54.771Z,0
2016-11-20T01:32:54.138Z,0
2016-11-20T01:33:54.778Z,0
2016-11-20T01:34:54.160Z,0
2016-11-20T01:35:54.491Z,0
2016-11-20T01:36:54.511Z,0
2016-11-20T01:37:53.898Z,0
2016-11-20T01:38:55.679Z,0
2016-11-20T01:39:54.576Z,0
2016-11-20T01:40:54.565Z,0
2016-11-20T01:41:54.587Z,0
2016-11-20T01:42:54.601Z,0
2016-11-20T01:43:54.299Z,0
2016-11-20T01:44:54.625Z,0
2016-11-20T01:45:54.325Z,0
2016-11-20T01:46:54.652Z,0
2016-11-20T01:47:54.993Z,0
2016-11-20T01:48:54.694Z,0
2016-11-20T01:49:55.075Z,0
2016-11-20T01:50:54.736Z,0
2016-11-20T01:51:54.730Z,0
2016-11-20T01:52:54.755Z,0
2016-11-20T01:53:55.119Z,0
2016-11-20T01:54:55.114Z,0
2016-11-20T01:55:54.472Z,0
2016-11-20T01:56:54.491Z,0
2016-11-20T01:57:54.818Z,0
2016-11-20T01:58:54.838Z,0
2016-11-20T01:59:54.218Z,0
2016-11-20T02:00:54.242Z,0
2016-11-20T02:01:54.565Z,0
2016-11-20T02:02:54.892Z,0
2016-11-20T02:03:55.230Z,0
2016-11-20T02:04:54.291Z,0
2016-11-20T02:05:55.249Z,0
2016-11-20T02:06:54.953Z,0
2016-11-20T02:07:54.978Z,0
2016-11-20T02:08:54.665Z,0
2016-11-20T02:09:55.004Z,0
2016-11-20T02:10:54.701Z,0
2016-11-20T02:11:55.029Z,0
2016-11-20T02:12:55.352Z,0
2016-11-20T02:13:55.368Z,0
2016-11-20T02:14:55.387Z,0
2016-11-20T02:15:55.402Z,0
2016-11-20T02:16:55.107Z,0
2016-11-20T02:17:54.802Z,0
2016-11-20T02:18:54.866Z,0
2016-11-20T02:19:54.836Z,0
2016-11-20T02:20:54.529Z,0
2016-11-20T02:21:55.176Z,0
2016-11-20T02:22:55.210Z,0
2016-11-20T02:23:55.552Z,0
2016-11-20T02:24:54.931Z,0
2016-11-20T02:25:54.606Z,0
2016-11-20T02:26:55.264Z,0
2016-11-20T02:27:55.285Z,0
2016-11-20T02:28:54.959Z,0
2016-11-20T02:29:55.013Z,0
2016-11-20T02:30:55.626Z,0
2016-11-20T02:31:55.343Z,0
2016-11-20T02:32:54.730Z,0
2016-11-20T02:33:55.667Z,0
2016-11-20T02:34:55.364Z,0
2016-11-20T02:35:55.698Z,0
2016-11-20T02:36:55.401Z,0
2016-11-20T02:37:55.098Z,0
2016-11-20T02:38:55.774Z,0
2016-11-20T02:39:55.787Z,0
2016-11-20T02:40:54.830Z,0
2016-11-20T02:41:55.504Z,0
2016-11-20T02:42:55.484Z,0
2016-11-20T02:43:55.181Z,0
2016-11-20T02:44:56.148Z,0
2016-11-20T02:45:55.222Z,0
2016-11-20T02:46:55.255Z,0
2016-11-20T02:47:55.884Z,0
2016-11-20T02:48:55.885Z,0
2016-11-20T02:49:55.308Z,0
2016-11-20T02:50:56.236Z,0
2016-11-20T02:51:54.990Z,0
2016-11-20T02:52:55.642Z,0
2016-11-20T02:53:55.648Z,0
2016-11-20T02:54:55.350Z,0
2016-11-20T02:55:55.363Z,0
2016-11-20T02:56:56.006Z,0
2016-11-20T02:57:55.701Z,0
2016-11-20T02:58:55.413Z,0
2016-11-20T02:59:55.110Z,0
2016-11-20T03:00:55.121Z,0
2016-11-20T03:01:56.090Z,0
2016-11-20T03:02:55.780Z,0
2016-11-20T03:03:56.114Z,0
2016-11-20T03:04:56.126Z,0
2016-11-20T03:05:55.507Z,0
2016-11-20T03:06:55.847Z,0
2016-11-20T03:07:55.539Z,0
2016-11-20T03:08:55.870Z,0
2016-11-20T03:09:56.201Z,0
2016-11-20T03:10:55.900Z,0
2016-11-20T03:11:56.539Z,0
2016-11-20T03:12:55.627Z,0
2016-11-20T03:13:55.970Z,0
2016-11-20T03:14:55.648Z,0
2016-11-20T03:15:55.344Z,0
2016-11-20T03:16:56.501Z,0
2016-11-20T03:17:55.386Z,0
2016-11-20T03:18:55.703Z,0
2016-11-20T03:19:55.393Z,0
2016-11-20T03:20:56.045Z,0
2016-11-20T03:21:55.427Z,0
2016-11-20T03:22:56.384Z,0
2016-11-20T03:23:55.778Z,0
2016-11-20T03:24:56.102Z,0
2016-11-20T03:25:56.125Z,0
2016-11-20T03:26:55.501Z,0
2016-11-20T03:27:55.832Z,0
2016-11-20T03:28:55.538Z,0
2016-11-20T03:29:56.171Z,0
2016-11-20T03:30:56.513Z,0
2016-11-20T03:31:56.522Z,0
2016-11-20T03:32:56.537Z,0
2016-11-20T03:33:56.234Z,0
2016-11-20T03:34:55.933Z,0
2016-11-20T03:35:55.641Z,0
2016-11-20T03:36:55.647Z,0
2016-11-20T03:37:56.302Z,0
2016-11-20T03:38:56.341Z,0
2016-11-20T03:39:56.007Z,0
2016-11-20T03:40:56.029Z,0
2016-11-20T03:41:56.057Z,0
2016-11-20T03:42:56.378Z,0
2016-11-20T03:43:56.400Z,0
2016-11-20T03:44:55.778Z,0
2016-11-20T03:45:56.416Z,0
2016-11-20T03:46:56.433Z,0
2016-11-20T03:47:56.757Z,0
2016-11-20T03:48:56.454Z,0
2016-11-20T03:49:56.170Z,0
2016-11-20T03:50:56.168Z,0
2016-11-20T03:51:56.503Z,0
2016-11-20T03:52:56.195Z,0
2016-11-20T03:53:56.528Z,0
2016-11-20T03:54:56.548Z,0
2016-11-20T03:55:56.875Z,0
2016-11-20T03:56:55.947Z,0
2016-11-20T03:57:56.916Z,0
2016-11-20T03:58:56.621Z,0
2016-11-20T03:59:56.301Z,0
2016-11-20T04:00:56.314Z,0
2016-11-20T04:01:56.331Z,0
2016-11-20T04:02:56.361Z,0
2016-11-20T04:03:57.301Z,0
2016-11-20T04:04:56.385Z,0
2016-11-20T04:05:56.090Z,0
2016-11-20T04:06:56.717Z,0
2016-11-20T04:07:56.729Z,0
2016-11-20T04:08:56.435Z,0
2016-11-20T04:09:56.758Z,0
2016-11-20T04:10:56.783Z,0
2016-11-20T04:11:56.826Z,0
2016-11-20T04:12:56.811Z,0
2016-11-20T04:13:56.511Z,0
2016-11-20T04:14:56.523Z,0
2016-11-20T04:15:56.847Z,0
2016-11-20T04:16:56.864Z,0
2016-11-20T04:17:57.512Z,0
2016-11-20T04:18:56.274Z,0
2016-11-20T04:19:57.223Z,0
2016-11-20T04:20:57.240Z,0
2016-11-20T04:21:56.624Z,0
2016-11-20T04:22:56.639Z,0
2016-11-20T04:23:56.653Z,0
2016-11-20T04:24:56.998Z,0
2016-11-20T04:25:57.028Z,0
2016-11-20T04:26:56.695Z,0
2016-11-20T04:27:56.399Z,0
2016-11-20T04:28:57.039Z,0
2016-11-20T04:29:57.061Z,0
2016-11-20T04:30:57.077Z,0
2016-11-20T04:31:57.401Z,0
2016-11-20T04:32:57.101Z,0
2016-11-20T04:33:57.135Z,0
2016-11-20T04:34:57.761Z,0
2016-11-20T04:35:57.772Z,0
2016-11-20T04:36:57.574Z,0
2016-11-20T04:37:56.903Z,0
2016-11-20T04:38:57.181Z,0
2016-11-20T04:39:57.522Z,0
2016-11-20T04:40:57.219Z,0
2016-11-20T04:41:57.231Z,0
2016-11-20T04:42:57.244Z,0
2016-11-20T04:43:57.258Z,0
2016-11-20T04:44:57.908Z,0
2016-11-20T04:45:56.980Z,0
2016-11-20T04:46:57.620Z,0
2016-11-20T04:47:57.003Z,0
2016-11-20T04:48:57.333Z,0
2016-11-20T04:49:57.351Z,0
2016-11-20T04:50:57.365Z,0
2016-11-20T04:51:57.691Z,0
2016-11-20T04:52:57.072Z,0
2016-11-20T04:53:57.125Z,0
2016-11-20T04:54:57.420Z,0
2016-11-20T04:55:57.795Z,0
2016-11-20T04:56:57.455Z,0
2016-11-20T04:57:57.464Z,0
2016-11-20T04:58:57.167Z,0
2016-11-20T04:59:57.807Z,0
2016-11-20T05:00:57.194Z,0
2016-11-20T05:01:57.835Z,0
2016-11-20T05:02:57.426Z,0
2016-11-20T05:03:57.564Z,0
2016-11-20T05:04:57.881Z,0
2016-11-20T05:05:56.964Z,0
2016-11-20T05:06:57.592Z,0
2016-11-20T05:07:57.302Z,0
2016-11-20T05:08:57.942Z,0
2016-11-20T05:09:57.339Z,0
2016-11-20T05:10:57.975Z,0
2016-11-20T05:11:57.983Z,0
2016-11-20T05:12:57.996Z,0
2016-11-20T05:13:58.025Z,0
2016-11-20T05:14:57.078Z,0
2016-11-20T05:15:58.363Z,0
2016-11-20T05:16:57.746Z,0
2016-11-20T05:17:57.439Z,0
2016-11-20T05:18:57.783Z,0
2016-11-20T05:19:57.784Z,0
2016-11-20T05:20:58.148Z,0
2016-11-20T05:21:57.499Z,0
2016-11-20T05:22:57.840Z,0
2016-11-20T05:23:57.542Z,0
2016-11-20T05:24:57.551Z,0
2016-11-20T05:25:57.564Z,0
2016-11-20T05:26:57.260Z,0
2016-11-20T05:27:57.901Z,0
2016-11-20T05:28:57.628Z,0
2016-11-20T05:29:57.612Z,0
2016-11-20T05:30:57.628Z,0
2016-11-20T05:31:57.645Z,0
2016-11-20T05:32:57.340Z,0
2016-11-20T05:33:57.988Z,0
2016-11-20T05:34:58.009Z,0
2016-11-20T05:35:58.020Z,0
2016-11-20T05:36:57.717Z,0
2016-11-20T05:37:58.043Z,0
2016-11-20T05:38:58.376Z,0
2016-11-20T05:39:58.073Z,0
2016-11-20T05:40:58.086Z,0
2016-11-20T05:41:58.101Z,0
2016-11-20T05:42:57.806Z,0
2016-11-20T05:43:58.448Z,0
2016-11-20T05:44:58.495Z,0
2016-11-20T05:45:58.482Z,0
2016-11-20T05:46:57.545Z,0
2016-11-20T05:47:57.552Z,0
2016-11-20T05:48:57.892Z,0
2016-11-20T05:49:58.215Z,0
2016-11-20T05:50:58.243Z,0
2016-11-20T05:51:58.251Z,0
2016-11-20T05:52:58.294Z,0
2016-11-20T05:53:58.618Z,0
2016-11-20T05:54:57.975Z,0
2016-11-20T05:55:58.938Z,0
2016-11-20T05:56:58.642Z,0
2016-11-20T05:57:58.015Z,0
2016-11-20T05:58:58.374Z,0
2016-11-20T05:59:58.685Z,0
2016-11-20T06:00:58.374Z,0
2016-11-20T06:01:58.717Z,0
2016-11-20T06:02:58.418Z,0
2016-11-20T06:03:58.102Z,0
2016-11-20T06:04:59.070Z,0
2016-11-20T06:05:58.805Z,0
2016-11-20T06:06:57.867Z,0
2016-11-20T06:07:58.831Z,0
2016-11-20T06:08:58.176Z,0
2016-11-20T06:09:58.507Z,0
2016-11-20T06:10:58.835Z,0
2016-11-20T06:11:58.869Z,0
2016-11-20T06:12:58.573Z,0
2016-11-20T06:13:58.883Z,0
2016-11-20T06:14:57.951Z,0
2016-11-20T06:15:58.281Z,0
2016-11-20T06:16:58.291Z,0
2016-11-20T06:17:57.990Z,0
2016-11-20T06:18:58.321Z,0
2016-11-20T06:19:58.337Z,0
2016-11-20T06:20:58.348Z,0
2016-11-20T06:21:58.686Z,0
2016-11-20T06:22:59.026Z,0
2016-11-20T06:23:58.398Z,0
2016-11-20T06:24:59.042Z,0
2016-11-20T06:25:58.115Z,0
2016-11-20T06:26:58.449Z,0
2016-11-20T06:27:58.455Z,0
2016-11-20T06:28:58.792Z,0
2016-11-20T06:29:58.819Z,0
2016-11-20T06:30:59.125Z,0
2016-11-20T06:31:58.825Z,0
2016-11-20T06:32:58.229Z,0
2016-11-20T06:33:58.864Z,0
2016-11-20T06:34:58.553Z,0
2016-11-20T06:35:58.885Z,0
2016-11-20T06:36:59.262Z,0
2016-11-20T06:37:58.934Z,0
2016-11-20T06:38:58.930Z,0
2016-11-20T06:39:58.942Z,0
2016-11-20T06:40:58.642Z,0
2016-11-20T06:41:58.974Z,0
2016-11-20T06:42:59.024Z,0
2016-11-20T06:43:59.001Z,0
2016-11-20T06:44:59.055Z,0
2016-11-20T06:45:59.036Z,0
2016-11-20T06:46:59.045Z,0
2016-11-20T06:47:59.697Z,0
2016-11-20T06:48:59.073Z,0
2016-11-20T06:49:59.405Z,0
2016-11-20T06:50:59.416Z,0
2016-11-20T06:51:59.120Z,0
2016-11-20T06:52:59.448Z,0
2016-11-20T06:53:59.146Z,0
2016-11-20T06:54:59.164Z,0
2016-11-20T06:55:58.861Z,0
2016-11-20T06:56:59.511Z,0
2016-11-20T06:57:59.215Z,0
2016-11-20T06:58:59.545Z,0
2016-11-20T06:59:58.921Z,0
2016-11-20T07:00:59.251Z,0
2016-11-20T07:01:58.949Z,0
2016-11-20T07:02:58.962Z,0
2016-11-20T07:03:59.610Z,5
2016-11-20T07:04:58.679Z,5
2016-11-20T07:05:59.958Z,5
2016-11-20T07:06:59.343Z,5
2016-11-20T07:07:59.364Z,5
2016-11-20T07:08:59.679Z,5
2016-11-20T07:09:58.748Z,5
2016-11-20T07:10:59.711Z,5
2016-11-20T07:12:00.090Z,5
2016-11-20T07:12:59.124Z,5
2016-11-20T07:13:59.132Z,5
2016-11-20T07:14:59.144Z,5
2016-11-20T07:15:59.471Z,5
2016-11-20T07:17:00.125Z,5
2016-11-20T07:17:59.810Z,5
2016-11-20T07:19:00.148Z,10
2016-11-20T07:19:59.531Z,10
2016-11-20T07:20:59.559Z,10
2016-11-20T07:21:59.568Z,10
2016-11-20T07:22:59.580Z,10
2016-11-20T07:24:14.485Z,10
2016-11-20T07:24:59.289Z,10
2016-11-20T07:25:59.941Z,10
2016-11-20T07:26:59.640Z,10
2016-11-20T07:27:59.654Z,10
2016-11-20T07:28:59.671Z,10
2016-11-20T07:29:59.998Z,15
2016-11-20T07:30:59.382Z,15
2016-11-20T07:31:59.709Z,15
2016-11-20T07:32:59.432Z,15
2016-11-20T07:33:59.138Z,15
2016-11-20T07:34:59.121Z,15
2016-11-20T07:35:59.766Z,15
2016-11-20T07:36:59.159Z,15
2016-11-20T07:37:59.483Z,15
2016-11-20T07:38:59.818Z,15
2016-11-20T07:39:59.512Z,15
2016-11-20T07:41:00.189Z,15
2016-11-20T07:41:59.546Z,15
2016-11-20T07:42:59.563Z,15
2016-11-20T07:43:59.904Z,15
2016-11-20T07:44:59.906Z,15
2016-11-20T07:46:00.560Z,15
2016-11-20T07:47:00.253Z,20
2016-11-20T07:47:59.948Z,20
2016-11-20T07:48:59.331Z,20
2016-11-20T07:49:59.999Z,20
2016-11-20T07:50:59.686Z,20
2016-11-20T07:51:59.698Z,20
2016-11-20T07:53:00.341Z,20
2016-11-20T07:54:00.385Z,20
2016-11-20T07:54:59.739Z,20
2016-11-20T07:56:00.072Z,20
2016-11-20T07:57:00.716Z,20
2016-11-20T07:57:59.788Z,20
2016-11-20T07:58:59.800Z,20
2016-11-20T08:00:00.143Z,20
2016-11-20T08:00:59.834Z,25
2016-11-20T08:02:00.486Z,25
2016-11-20T08:03:00.179Z,25
2016-11-20T08:04:00.525Z,25
2016-11-20T08:05:00.542Z,25
2016-11-20T08:05:59.910Z,30
2016-11-20T08:07:00.589Z,35
2016-11-20T08:07:59.939Z,60
2016-11-20T08:09:00.278Z,60
2016-11-20T08:10:00.307Z,45
2016-11-20T08:11:00.299Z,35
2016-11-20T08:12:00.333Z,35
2016-11-20T08:13:00.343Z,30
2016-11-20T08:14:00.349Z,35
2016-11-20T08:14:59.746Z,50
2016-11-20T08:16:00.384Z,35
2016-11-20T08:17:01.021Z,30
2016-11-20T08:18:00.728Z,30
2016-11-20T08:19:00.115Z,30
2016-11-20T08:20:00.445Z,30
2016-11-20T08:21:00.773Z,30
2016-11-20T08:22:00.787Z,30
2016-11-20T08:23:00.178Z,30
2016-11-20T08:24:00.819Z,30
2016-11-20T08:25:00.521Z,30
2016-11-20T08:26:00.863Z,30
2016-11-20T08:27:00.572Z,30
2016-11-20T08:28:00.589Z,35
2016-11-20T08:29:00.894Z,35
2016-11-20T08:30:00.297Z,35
2016-11-20T08:31:00.308Z,35
2016-11-20T08:32:00.977Z,35
2016-11-20T08:33:00.348Z,35
2016-11-20T08:34:00.678Z,35
2016-11-20T08:35:00.991Z,30
2016-11-20T08:36:00.691Z,30
2016-11-20T08:37:00.113Z,30
2016-11-20T08:38:00.729Z,35
2016-11-20T08:39:00.741Z,35
2016-11-20T08:40:01.415Z,35
2016-11-20T08:41:00.773Z,40
2016-11-20T08:42:01.109Z,40
2016-11-20T08:43:01.122Z,45
2016-11-20T08:44:00.505Z,50
2016-11-20T08:45:00.846Z,60
2016-11-20T08:46:00.229Z,65
2016-11-20T08:47:00.868Z,65
2016-11-20T08:48:00.892Z,70
2016-11-20T08:49:01.231Z,85
2016-11-20T08:50:00.605Z,100
2016-11-20T08:51:00.940Z,75
2016-11-20T08:52:01.275Z,65
2016-11-20T08:53:01.288Z,50
2016-11-20T08:54:00.361Z,50
2016-11-20T08:55:00.695Z,55
2016-11-20T08:56:01.025Z,60
2016-11-20T08:57:01.035Z,60
2016-11-20T08:58:01.091Z,50
2016-11-20T08:59:01.913Z,50
2016-11-20T09:00:00.775Z,55
2016-11-20T09:01:00.789Z,55
2016-11-20T09:02:01.148Z,50
2016-11-20T09:03:01.169Z,50
2016-11-20T09:04:00.866Z,55
2016-11-20T09:05:00.879Z,55
2016-11-20T09:06:00.879Z,70
2016-11-20T09:07:00.896Z,70
2016-11-20T09:08:01.566Z,80
2016-11-20T09:09:00.925Z,95
2016-11-20T09:10:00.945Z,155
2016-11-20T09:11:00.960Z,115
2016-11-20T09:12:01.296Z,90
2016-11-20T09:13:00.696Z,135
2016-11-20T09:14:01.330Z,185
2016-11-20T09:15:01.679Z,95
2016-11-20T09:16:01.367Z,90
2016-11-20T09:17:01.386Z,75
2016-11-20T09:18:01.090Z,65
2016-11-20T09:19:01.751Z,55
2016-11-20T09:20:00.810Z,50
2016-11-20T09:21:01.459Z,60
2016-11-20T09:22:01.163Z,60
2016-11-20T09:23:15.754Z,70
2016-11-20T09:24:00.891Z,70
2016-11-20T09:25:01.541Z,70
2016-11-20T09:26:01.237Z,70
2016-11-20T09:27:01.568Z,65
2016-11-20T09:28:01.923Z,60
2016-11-20T09:29:01.298Z,55
2016-11-20T09:30:01.630Z,55
2016-11-20T09:31:02.271Z,50
2016-11-20T09:32:01.666Z,50
2016-11-20T09:33:01.370Z,50
2016-11-20T09:34:01.702Z,50
2016-11-20T09:35:01.088Z,55
2016-11-20T09:36:01.428Z,60
2016-11-20T09:37:01.126Z,55
2016-11-20T09:38:01.780Z,55
2016-11-20T09:39:02.457Z,55
2016-11-20T09:40:01.815Z,60
2016-11-20T09:41:01.838Z,70
2016-11-20T09:42:01.855Z,90
2016-11-20T09:43:01.885Z,90
2016-11-20T09:44:01.888Z,90
2016-11-20T09:45:01.594Z,80
2016-11-20T09:46:01.302Z,80
2016-11-20T09:47:01.320Z,85
2016-11-20T09:48:01.967Z,75
2016-11-20T09:49:02.310Z,60
2016-11-20T09:50:01.686Z,60
2016-11-20T09:51:01.754Z,60
2016-11-20T09:52:02.364Z,60
2016-11-20T09:53:01.746Z,65
2016-11-20T09:54:01.452Z,65
2016-11-20T09:55:01.786Z,60
2016-11-20T09:56:02.441Z,55
2016-11-20T09:57:02.205Z,50
2016-11-20T09:58:02.652Z,70
2016-11-20T09:59:01.560Z,55
2016-11-20T10:00:01.592Z,50
2016-11-20T10:01:02.219Z,60
2016-11-20T10:02:02.236Z,50
2016-11-20T10:03:02.603Z,60
2016-11-20T10:04:02.286Z,60
2016-11-20T10:05:01.996Z,65
2016-11-20T10:06:02.318Z,60
2016-11-20T10:07:02.340Z,55
2016-11-20T10:08:02.678Z,55
2016-11-20T10:09:02.397Z,55
2016-11-20T10:10:02.718Z,60
2016-11-20T10:11:02.741Z,70
2016-11-20T10:12:02.134Z,70
2016-11-20T10:13:02.462Z,65
2016-11-20T10:14:02.161Z,80
2016-11-20T10:15:02.499Z,80
2016-11-20T10:16:02.835Z,75
2016-11-20T10:17:02.538Z,70
2016-11-20T10:18:02.585Z,70
2016-11-20T10:19:02.277Z,85
2016-11-20T10:20:02.912Z,90
2016-11-20T10:21:02.620Z,100
2016-11-20T10:22:02.963Z,85
2016-11-20T10:23:02.688Z,70
2016-11-20T10:24:02.050Z,70
2016-11-20T10:25:02.387Z,50
2016-11-20T10:26:03.069Z,50
2016-11-20T10:27:02.108Z,50
2016-11-20T10:28:03.080Z,50
2016-11-20T10:29:03.093Z,55
2016-11-20T10:30:02.801Z,55
2016-11-20T10:31:02.518Z,55
2016-11-20T10:32:03.158Z,55
2016-11-20T10:33:02.878Z,45
2016-11-20T10:34:02.893Z,45
2016-11-20T10:35:03.226Z,45
2016-11-20T10:36:02.926Z,45
2016-11-20T10:37:02.645Z,50
2016-11-20T10:38:02.371Z,50
2016-11-20T10:39:02.672Z,45
2016-11-20T10:40:02.702Z,50
2016-11-20T10:41:03.028Z,45
2016-11-20T10:42:02.737Z,45
2016-11-20T10:43:02.759Z,45
2016-11-20T10:44:03.407Z,45
2016-11-20T10:45:02.814Z,50
2016-11-20T10:46:03.474Z,45
2016-11-20T10:47:03.157Z,50
2016-11-20T10:48:02.545Z,45
2016-11-20T10:49:03.209Z,45
2016-11-20T10:50:03.220Z,45
2016-11-20T10:51:03.234Z,40
2016-11-20T10:52:03.569Z,45
2016-11-20T10:53:03.298Z,45
2016-11-20T10:54:03.310Z,45
2016-11-20T10:55:03.005Z,40
2016-11-20T10:56:03.338Z,35
2016-11-20T10:57:03.384Z,35
2016-11-20T10:58:03.405Z,35
2016-11-20T10:59:03.404Z,35
2016-11-20T11:00:03.116Z,35
2016-11-20T11:01:03.126Z,40
2016-11-20T11:02:03.145Z,35
2016-11-20T11:03:03.491Z,30
2016-11-20T11:04:03.520Z,30
2016-11-20T11:05:03.859Z,30
2016-11-20T11:06:03.862Z,30
2016-11-20T11:07:03.565Z,30
2016-11-20T11:08:03.285Z,30
2016-11-20T11:09:03.610Z,30
2016-11-20T11:10:03.632Z,30
2016-11-20T11:11:03.652Z,30
2016-11-20T11:12:03.366Z,30
2016-11-20T11:13:03.376Z,25
2016-11-20T11:14:03.411Z,25
2016-11-20T11:15:03.739Z,25
2016-11-20T11:16:03.771Z,25
2016-11-20T11:17:03.464Z,30
2016-11-20T11:18:03.487Z,30
2016-11-20T11:19:03.853Z,30
2016-11-20T11:20:03.210Z,25
2016-11-20T11:21:03.875Z,25
2016-11-20T11:22:03.887Z,25
2016-11-20T11:23:03.902Z,25
2016-11-20T11:24:03.938Z,25
2016-11-20T11:25:03.957Z,25
2016-11-20T11:26:03.968Z,25
2016-11-20T11:27:03.992Z,25
2016-11-20T11:28:04.024Z,25
2016-11-20T11:29:04.347Z,25
2016-11-20T11:30:03.736Z,30
2016-11-20T11:31:04.441Z,30
2016-11-20T11:32:04.091Z,30
2016-11-20T11:33:03.802Z,30
2016-11-20T11:34:03.836Z,30
2016-11-20T11:35:04.485Z,30
2016-11-20T11:36:03.871Z,30
2016-11-20T11:37:04.203Z,30
2016-11-20T11:38:03.905Z,30
2016-11-20T11:39:04.582Z,30
2016-11-20T11:40:04.260Z,30
2016-11-20T11:41:04.310Z,30
2016-11-20T11:42:03.991Z,30
2016-11-20T11:43:04.336Z,30
2016-11-20T11:44:04.663Z,30
2016-11-20T11:45:04.059Z,25
2016-11-20T11:46:03.790Z,25
2016-11-20T11:47:03.798Z,25
2016-11-20T11:48:03.829Z,25
2016-11-20T11:49:04.457Z,25
2016-11-20T11:50:04.507Z,25
2016-11-20T11:51:03.922Z,25
2016-11-20T11:52:04.251Z,25
2016-11-20T11:53:03.978Z,25
2016-11-20T11:54:04.592Z,25
2016-11-20T11:55:04.601Z,25
2016-11-20T11:56:04.369Z,25
2016-11-20T11:57:04.321Z,25
2016-11-20T11:58:04.970Z,25
2016-11-20T11:59:04.050Z,25
2016-11-20T12:00:05.006Z,25
2016-11-20T12:01:05.031Z,25
2016-11-20T12:02:04.422Z,25
2016-11-20T12:03:04.752Z,25
2016-11-20T12:04:04.787Z,25
2016-11-20T12:05:05.128Z,25
2016-11-20T12:06:04.513Z,25
2016-11-20T12:07:05.162Z,25
2016-11-20T12:08:05.196Z,25
2016-11-20T12:09:04.888Z,25
2016-11-20T12:10:04.592Z,25
2016-11-20T12:11:04.937Z,25
2016-11-20T12:12:05.607Z,25
2016-11-20T12:13:05.312Z,25
2016-11-20T12:14:04.994Z,25
2016-11-20T12:15:05.016Z,25
2016-11-20T12:16:19.619Z,25
2016-11-20T12:17:04.746Z,25
2016-11-20T12:18:04.784Z,25
2016-11-20T12:19:05.747Z,25
2016-11-20T12:20:05.145Z,25
2016-11-20T12:21:05.170Z,25
2016-11-20T12:22:05.483Z,25
2016-11-20T12:23:04.875Z,25
2016-11-20T12:24:04.907Z,25
2016-11-20T12:25:05.236Z,25
2016-11-20T12:26:05.263Z,25
2016-11-20T12:27:05.832Z,25
2016-11-20T12:28:05.307Z,25
2016-11-20T12:29:05.021Z,25
2016-11-20T12:30:05.346Z,25
2016-11-20T12:31:05.059Z,20
2016-11-20T12:32:05.386Z,20
2016-11-20T12:33:05.624Z,20
2016-11-20T12:34:05.747Z,20
2016-11-20T12:35:05.465Z,20
2016-11-20T12:36:06.117Z,25
2016-11-20T12:37:05.506Z,25
2016-11-20T12:38:05.198Z,25
2016-11-20T12:39:05.545Z,25
2016-11-20T12:40:06.192Z,25
2016-11-20T12:41:05.597Z,25
2016-11-20T12:42:05.622Z,20
2016-11-20T12:43:05.322Z,20
2016-11-20T12:44:05.021Z,20
2016-11-20T12:45:06.307Z,20
2016-11-20T12:46:05.685Z,20
2016-11-20T12:47:05.394Z,20
2016-11-20T12:48:05.417Z,20
2016-11-20T12:49:06.075Z,20
2016-11-20T12:50:05.787Z,20
2016-11-20T12:51:05.803Z,20
2016-11-20T12:52:05.833Z,20
2016-11-20T12:53:05.247Z,20
2016-11-20T12:54:05.550Z,20
2016-11-20T12:55:05.916Z,20
2016-11-20T12:56:06.225Z,20
2016-11-20T12:57:06.251Z,25
2016-11-20T12:58:05.632Z,25
2016-11-20T12:59:05.996Z,20
2016-11-20T13:00:05.373Z,20
2016-11-20T13:01:05.710Z,20
2016-11-20T13:02:06.046Z,25
2016-11-20T13:03:06.384Z,25
2016-11-20T13:04:06.417Z,20
2016-11-20T13:05:06.117Z,25
2016-11-20T13:06:06.464Z,25
2016-11-20T13:07:06.150Z,25
2016-11-20T13:08:06.493Z,25
2016-11-20T13:09:06.204Z,25
2016-11-20T13:10:06.224Z,25
2016-11-20T13:11:05.924Z,30
2016-11-20T13:12:06.267Z,25
2016-11-20T13:13:06.912Z,25
2016-11-20T13:14:06.624Z,25
2016-11-20T13:15:06.020Z,25
2016-11-20T13:16:06.061Z,20
2016-11-20T13:17:06.069Z,25
2016-11-20T13:18:06.427Z,20
2016-11-20T13:19:06.435Z,20
2016-11-20T13:20:06.769Z,20
2016-11-20T13:21:06.779Z,20
2016-11-20T13:22:07.121Z,20
2016-11-20T13:23:05.883Z,25
2016-11-20T13:24:06.213Z,25
2016-11-20T13:25:06.873Z,20
2016-11-20T13:26:06.266Z,20
2016-11-20T13:27:06.325Z,25
2016-11-20T13:28:06.629Z,20
2016-11-20T13:29:06.334Z,20
2016-11-20T13:30:06.364Z,20
2016-11-20T13:31:07.323Z,20
2016-11-20T13:32:06.095Z,20
2016-11-20T13:33:06.739Z,20
2016-11-20T13:34:06.771Z,20
2016-11-20T13:35:06.478Z,20
2016-11-20T13:36:06.175Z,20
2016-11-20T13:37:07.145Z,20
2016-11-20T13:38:06.877Z,20
2016-11-20T13:39:07.193Z,20
2016-11-20T13:40:06.585Z,20
2016-11-20T13:41:07.236Z,20
2016-11-20T13:42:06.313Z,20
2016-11-20T13:43:07.285Z,20
2016-11-20T13:44:06.675Z,20
2016-11-20T13:45:07.019Z,20
2016-11-20T13:46:07.034Z,20
2016-11-20T13:47:06.746Z,20
2016-11-20T13:48:07.402Z,20
2016-11-20T13:49:07.435Z,20
2016-11-20T13:50:06.508Z,20
2016-11-20T13:51:07.786Z,20
2016-11-20T13:52:06.543Z,25
2016-11-20T13:53:07.544Z,30
2016-11-20T13:54:07.231Z,25
2016-11-20T13:55:06.997Z,25
2016-11-20T13:56:06.950Z,25
2016-11-20T13:57:06.978Z,25
2016-11-20T13:58:06.676Z,30
2016-11-20T13:59:07.648Z,30
2016-11-20T14:00:06.747Z,30
2016-11-20T14:01:07.380Z,30
2016-11-20T14:02:07.102Z,25
2016-11-20T14:03:07.429Z,20
2016-11-20T14:04:07.139Z,25
2016-11-20T14:05:07.805Z,25
2016-11-20T14:06:06.861Z,25
2016-11-20T14:07:07.515Z,25
2016-11-20T14:08:07.536Z,20
2016-11-20T14:09:07.573Z,20
2016-11-20T14:10:07.582Z,20
2016-11-20T14:11:07.290Z,20
2016-11-20T14:12:07.313Z,20
2016-11-20T14:13:07.651Z,25
2016-11-20T14:14:07.669Z,25
2016-11-20T14:15:07.703Z,25
2016-11-20T14:16:07.721Z,25
2016-11-20T14:17:07.106Z,25
2016-11-20T14:18:07.133Z,20
2016-11-20T14:19:07.183Z,20
2016-11-20T14:20:07.491Z,20
2016-11-20T14:21:07.512Z,15
2016-11-20T14:22:07.851Z,15
2016-11-20T14:23:07.928Z,15
2016-11-20T14:24:07.920Z,15
2016-11-20T14:25:07.951Z,20
2016-11-20T14:26:08.267Z,20
2016-11-20T14:27:07.958Z,20
2016-11-20T14:28:08.308Z,15
2016-11-20T14:29:07.689Z,10
2016-11-20T14:30:08.094Z,10
2016-11-20T14:31:07.746Z,10
2016-11-20T14:32:07.775Z,5